Time;durP1;ratioP1;P1;durP2;ratioP2;P2;SDS_P1;SDS_P2;PMS_P1;PMS_P2;Temp;Humidity;BMP_temperature;BMP_pressure;BME280_temperature;BME280_humidity;BME280_pressure;Samples;Min_cycle;Max_cycle;Signal;HPM_P1;HPM_P2
2020/12/18 00:00:31;;;;;;;50.33;23.98;;;;;;;-0.58;100.00;100532.92;1823307;78;22138;-73
2020/12/18 00:03:01;;;;;;;50.15;23.45;;;;;;;-0.59;100.00;100533.06;1822833;78;25508;-73
2020/12/18 00:05:32;;;;;;;54.48;25.97;;;;;;;-0.62;100.00;100533.38;1822686;78;21125;-73
2020/12/18 00:08:01;;;;;;;45.20;22.45;;;;;;;-0.65;100.00;100530.57;1822804;78;20965;-74
2020/12/18 00:10:30;;;;;;;45.25;23.85;;;;;;;-0.68;100.00;100533.53;1822859;78;20967;-73
2020/12/18 00:13:00;;;;;;;40.25;19.98;;;;;;;-0.70;100.00;100530.22;1822866;78;26870;-72
2020/12/18 00:15:30;;;;;;;45.83;24.00;;;;;;;-0.70;100.00;100525.77;1822569;78;21457;-73
2020/12/18 00:17:58;;;;;;;47.88;23.83;;;;;;;-0.74;100.00;100527.55;1822861;78;20988;-73
2020/12/18 00:20:29;;;;;;;42.62;23.12;;;;;;;-0.77;100.00;100529.19;1822793;78;21553;-74
2020/12/18 00:23:03;;;;;;;51.70;24.18;;;;;;;-0.80;100.00;100527.69;1822763;78;21454;-73
2020/12/18 00:25:34;;;;;;;46.40;23.75;;;;;;;-0.81;100.00;100529.97;1822828;78;22074;-74
2020/12/18 00:28:02;;;;;;;43.85;22.07;;;;;;;-0.82;100.00;100529.65;1822722;78;21225;-73
2020/12/18 00:30:35;;;;;;;45.33;20.17;;;;;;;-0.85;100.00;100532.60;1822495;78;20932;-73
2020/12/18 00:33:03;;;;;;;42.60;20.23;;;;;;;-0.87;100.00;100530.11;1822845;78;20899;-73
2020/12/18 00:35:35;;;;;;;39.50;20.12;;;;;;;-0.92;100.00;100532.39;1795936;78;21030;-74
2020/12/18 00:38:14;;;;;;;35.92;19.62;;;;;;;-0.93;100.00;100533.38;1820381;78;20983;-73
2020/12/18 00:40:45;;;;;;;46.08;23.80;;;;;;;-0.95;100.00;100541.93;1822650;78;20876;-73
2020/12/18 00:43:14;;;;;;;43.68;21.62;;;;;;;-0.96;100.00;100539.44;1822706;78;20894;-73
2020/12/18 00:45:47;;;;;;;39.73;21.05;;;;;;;-0.96;100.00;100534.98;1822643;78;20904;-73
2020/12/18 00:48:18;;;;;;;37.58;19.95;;;;;;;-0.96;100.00;100539.44;1797046;78;20947;-73
2020/12/18 00:50:49;;;;;;;43.55;22.98;;;;;;;-0.97;100.00;100535.16;1818415;77;21419;-73
2020/12/18 00:53:21;;;;;;;43.68;22.37;;;;;;;-0.98;100.00;100534.34;1811677;79;20940;-74
2020/12/18 00:55:51;;;;;;;36.35;18.80;;;;;;;-0.99;100.00;100533.17;1811659;79;20900;-74
2020/12/18 00:58:19;;;;;;;37.15;21.68;;;;;;;-1.01;100.00;100529.36;1811730;79;20999;-73
2020/12/18 01:00:50;;;;;;;42.78;19.90;;;;;;;-1.04;100.00;100526.22;1811847;79;21525;-73
2020/12/18 01:03:20;;;;;;;36.75;19.52;;;;;;;-1.06;100.00;100528.17;1811497;79;21204;-74
2020/12/18 01:05:49;;;;;;;42.83;22.55;;;;;;;-1.08;100.00;100530.95;1811749;79;20971;-73
2020/12/18 01:08:21;;;;;;;40.95;21.85;;;;;;;-1.10;100.00;100525.86;1810607;79;20908;-74
2020/12/18 01:10:50;;;;;;;38.58;20.30;;;;;;;-1.11;100.00;100520.73;1811652;79;20991;-73
2020/12/18 01:13:20;;;;;;;49.27;23.40;;;;;;;-1.11;100.00;100524.68;1784596;79;20987;-73
2020/12/18 01:15:53;;;;;;;37.55;19.65;;;;;;;-1.14;100.00;100517.91;1811750;79;21356;-74
2020/12/18 01:18:31;;;;;;;40.90;22.50;;;;;;;-1.09;100.00;100518.77;1875761;76;21817;-72
2020/12/18 01:21:05;;;;;;;45.92;23.45;;;;;;;-1.17;100.00;100518.23;1817387;79;21535;-73
2020/12/18 01:23:36;;;;;;;33.02;21.00;;;;;;;-1.18;100.00;100513.10;1817271;79;21225;-71
2020/12/18 01:26:10;;;;;;;73.42;26.45;;;;;;;-1.19;100.00;100499.11;1817001;79;21011;-71
2020/12/18 01:28:40;;;;;;;73.50;31.40;;;;;;;-1.20;100.00;100500.10;1817305;79;20924;-71
2020/12/18 01:31:10;;;;;;;52.38;25.43;;;;;;;-1.23;100.00;100508.29;1817291;78;20860;-72
2020/12/18 01:33:38;;;;;;;36.15;21.75;;;;;;;-1.24;100.00;100501.87;1818241;78;20901;-71
2020/12/18 01:36:14;;;;;;;42.33;21.33;;;;;;;-1.25;100.00;100500.20;1819766;79;21368;-72
2020/12/18 01:38:45;;;;;;;45.98;22.65;;;;;;;-1.26;100.00;100490.17;1818964;79;20923;-71
2020/12/18 01:41:16;;;;;;;40.90;22.30;;;;;;;-1.25;100.00;100498.42;1817405;79;20979;-72
2020/12/18 01:43:47;;;;;;;44.73;23.30;;;;;;;-1.25;100.00;100498.89;1817215;79;21545;-72
2020/12/18 01:46:20;;;;;;;45.83;22.70;;;;;;;-1.26;100.00;100492.80;1817213;79;21031;-71
2020/12/18 01:48:51;;;;;;;44.13;23.38;;;;;;;-1.26;100.00;100490.17;1817059;79;22106;-72
2020/12/18 01:51:25;;;;;;;43.48;23.67;;;;;;;-1.25;100.00;100492.30;1817026;79;20967;-71
2020/12/18 01:53:56;;;;;;;53.83;27.42;;;;;;;-1.26;100.00;100494.12;1817005;79;21019;-73
2020/12/18 01:56:38;;;;;;;58.78;29.42;;;;;;;-1.26;100.00;100497.25;1816575;79;20935;-71
2020/12/18 01:59:15;;;;;;;47.10;25.32;;;;;;;-1.27;100.00;100494.26;1816705;79;20880;-73
2020/12/18 02:01:46;;;;;;;52.75;25.82;;;;;;;-1.29;100.00;100494.44;1815129;79;22395;-72
2020/12/18 02:04:26;;;;;;;43.78;23.47;;;;;;;-1.30;100.00;100497.56;1815932;79;21613;-72
2020/12/18 02:06:58;;;;;;;49.73;24.37;;;;;;;-1.31;100.00;100490.63;1817391;79;20940;-72
2020/12/18 02:09:29;;;;;;;46.63;23.07;;;;;;;-1.30;100.00;100490.12;1815964;79;21501;-71
2020/12/18 02:11:59;;;;;;;51.68;23.75;;;;;;;-1.31;100.00;100495.89;1815969;79;20864;-72
2020/12/18 02:14:30;;;;;;;46.42;23.38;;;;;;;-1.31;100.00;100491.12;1817198;79;21192;-71
2020/12/18 02:16:59;;;;;;;49.33;22.27;;;;;;;-1.34;100.00;100492.25;1814097;79;21502;-73
2020/12/18 02:19:36;;;;;;;41.53;21.30;;;;;;;-1.32;100.00;100489.48;1805830;79;21141;-73
2020/12/18 02:22:17;;;;;;;39.48;20.62;;;;;;;-1.34;100.00;100488.30;1806183;79;20861;-71
2020/12/18 02:25:18;;;;;;;;;;;;;;;;;;;;;
2020/12/18 02:27:45;;;;;;;46.10;25.95;;;;;;;-1.34;100.00;100487.48;1825974;77;27860;-73
2020/12/18 02:30:20;;;;;;;45.60;23.10;;;;;;;-1.37;100.00;100486.45;1817248;79;21026;-72
2020/12/18 02:32:59;;;;;;;39.63;21.20;;;;;;;-1.37;100.00;100487.30;1816168;78;21251;-71
2020/12/18 02:35:29;;;;;;;36.15;17.60;;;;;;;-1.39;100.00;100482.67;1817207;79;21035;-72
2020/12/18 02:38:14;;;;;;;36.08;18.57;;;;;;;-1.43;100.00;100477.36;1750175;82;21012;-71
2020/12/18 02:40:48;;;;;;;36.13;19.12;;;;;;;-1.43;100.00;100480.50;1781171;80;21066;-73
2020/12/18 02:43:36;;;;;;;35.08;18.45;;;;;;;-1.42;100.00;100480.81;1749465;82;20912;-74
2020/12/18 02:46:05;;;;;;;37.93;18.17;;;;;;;-1.44;100.00;100478.86;1787007;80;21367;-73
2020/12/18 02:48:38;;;;;;;38.70;19.92;;;;;;;-1.46;100.00;100475.54;1786547;80;21082;-72
2020/12/18 02:51:12;;;;;;;30.43;15.85;;;;;;;-1.48;100.00;100474.36;1785739;80;21018;-72
2020/12/18 02:53:46;;;;;;;23.85;13.75;;;;;;;-1.48;100.00;100478.81;1786152;80;21494;-73
2020/12/18 02:56:30;;;;;;;26.30;14.43;;;;;;;-1.50;100.00;100471.05;1782449;80;20991;-72
2020/12/18 02:59:05;;;;;;;28.38;13.93;;;;;;;-1.47;100.00;100479.14;1747862;82;21202;-73
2020/12/18 03:01:34;;;;;;;27.25;13.88;;;;;;;-1.46;100.00;100476.86;1748548;82;20908;-73
2020/12/18 03:04:03;;;;;;;27.75;14.07;;;;;;;-1.45;100.00;100485.08;1750297;81;20919;-73
2020/12/18 03:06:38;;;;;;;27.15;13.32;;;;;;;-1.45;100.00;100479.81;1779873;80;21891;-73
2020/12/18 03:09:06;;;;;;;30.25;15.50;;;;;;;-1.46;100.00;100479.00;1750529;82;20917;-72
2020/12/18 03:11:36;;;;;;;23.57;14.07;;;;;;;-1.47;100.00;100479.98;1781169;80;21372;-73
2020/12/18 03:14:11;;;;;;;31.20;14.65;;;;;;;-1.47;100.00;100471.23;1749680;82;20957;-73
2020/12/18 03:16:49;;;;;;;27.85;14.23;;;;;;;-1.47;100.00;100480.45;1781116;80;21521;-73
2020/12/18 03:19:28;;;;;;;28.42;15.88;;;;;;;-1.43;100.00;100470.78;1852069;77;28549;-72
2020/12/18 03:21:58;;;;;;;28.62;15.78;;;;;;;-1.47;100.00;100472.55;1819388;78;21058;-71
2020/12/18 03:24:30;;;;;;;33.05;17.50;;;;;;;-1.48;100.00;100470.41;1749080;82;21159;-72
2020/12/18 03:27:03;;;;;;;37.93;19.75;;;;;;;-1.48;100.00;100465.15;1817556;78;21002;-72
2020/12/18 03:29:34;;;;;;;40.55;20.05;;;;;;;-1.47;100.00;100472.55;1749364;82;20947;-72
2020/12/18 03:32:05;;;;;;;35.83;17.95;;;;;;;-1.48;100.00;100474.36;1819851;78;20915;-72
2020/12/18 03:34:39;;;;;;;50.58;21.62;;;;;;;-1.50;100.00;100480.27;1750036;82;20928;-71
2020/12/18 03:37:17;;;;;;;49.48;22.62;;;;;;;-1.53;100.00;100477.45;1818649;78;21389;-72
2020/12/18 03:40:06;;;;;;;40.33;19.87;;;;;;;-1.54;100.00;100481.58;1749987;82;21078;-71
2020/12/18 03:42:36;;;;;;;37.78;19.67;;;;;;;-1.55;100.00;100486.48;1644109;86;21006;-71
2020/12/18 03:45:04;;;;;;;31.02;18.02;;;;;;;-1.56;100.00;100483.53;1644276;87;21535;-72
2020/12/18 03:47:47;;;;;;;32.13;15.72;;;;;;;-1.52;100.00;100490.12;1852175;77;21828;-72
2020/12/18 03:50:19;;;;;;;33.40;17.70;;;;;;;-1.57;100.00;100490.61;1818237;78;21168;-72
2020/12/18 03:52:54;;;;;;;35.73;16.70;;;;;;;-1.57;100.00;100493.23;1745890;82;21167;-72
2020/12/18 03:55:29;;;;;;;36.17;16.95;;;;;;;-1.57;100.00;100487.97;1819821;78;21058;-72
2020/12/18 03:58:25;;;;;;;35.33;15.80;;;;;;;-1.57;100.00;100485.34;1819843;78;21042;-73
2020/12/18 04:01:05;;;;;;;38.17;19.20;;;;;;;-1.56;100.00;100486.98;1710220;83;20951;-73
2020/12/18 04:03:44;;;;;;;38.60;19.52;;;;;;;-1.55;100.00;100485.17;1852100;77;28578;-73
2020/12/18 04:06:18;;;;;;;34.13;17.52;;;;;;;-1.61;100.00;100482.66;1819885;78;21596;-72
2020/12/18 04:09:02;;;;;;;37.85;17.75;;;;;;;-1.61;100.00;100480.53;1819794;78;21142;-72
2020/12/18 04:11:41;;;;;;;35.05;17.62;;;;;;;-1.63;100.00;100483.30;1819822;78;20915;-73
2020/12/18 04:14:31;;;;;;;36.95;18.25;;;;;;;-1.64;100.00;100481.66;1819115;78;21565;-73
2020/12/18 04:17:06;;;;;;;39.85;19.27;;;;;;;-1.63;100.00;100486.42;1819034;78;21584;-73
2020/12/18 04:19:41;;;;;;;35.25;19.42;;;;;;;-1.61;100.00;100493.69;1750190;82;21494;-71
2020/12/18 04:22:19;;;;;;;33.50;18.45;;;;;;;-1.61;100.00;100484.47;1819901;78;21625;-72
2020/12/18 04:24:52;;;;;;;32.00;17.67;;;;;;;-1.61;100.00;100488.42;1805198;78;20943;-73
2020/12/18 04:27:22;;;;;;;35.25;17.80;;;;;;;-1.62;100.00;100490.70;1819781;78;20915;-72
2020/12/18 04:29:53;;;;;;;35.28;19.15;;;;;;;-1.62;100.00;100491.52;1748577;81;21359;-74
2020/12/18 04:32:37;;;;;;;27.95;14.20;;;;;;;-1.61;100.00;100494.51;1821801;78;20999;-73
2020/12/18 04:35:08;;;;;;;30.45;16.42;;;;;;;-1.57;100.00;100499.82;1750045;82;21202;-72
2020/12/18 04:37:40;;;;;;;37.58;17.37;;;;;;;-1.57;100.00;100497.19;1810136;78;20932;-73
2020/12/18 04:40:31;;;;;;;28.62;15.18;;;;;;;-1.56;100.00;100496.20;1749831;82;21494;-71
2020/12/18 04:43:24;;;;;;;32.70;20.65;;;;;;;-1.52;100.00;100493.61;1852130;77;22676;-71
2020/12/18 04:45:59;;;;;;;41.68;24.43;;;;;;;-1.56;100.00;100496.20;1819818;78;20919;-73
2020/12/18 04:48:30;;;;;;;63.30;29.87;;;;;;;-1.57;100.00;100495.88;1721603;82;21216;-71
2020/12/18 04:51:07;;;;;;;54.03;25.40;;;;;;;-1.58;100.00;100490.25;1789110;78;20947;-72
2020/12/18 04:53:41;;;;;;;51.80;23.45;;;;;;;-1.57;100.00;100492.39;1749685;82;21062;-73
2020/12/18 04:56:26;;;;;;;46.65;23.27;;;;;;;-1.52;100.00;100483.54;1841859;77;22648;-72
2020/12/18 04:59:03;;;;;;;40.75;21.80;;;;;;;-1.56;100.00;100488.30;1816884;79;20907;-73
2020/12/18 05:01:58;;;;;;;40.75;20.05;;;;;;;-1.52;100.00;100484.39;1852131;77;28107;-73
2020/12/18 05:04:30;;;;;;;;;;;;;;;-1.56;100.00;100497.52;1822655;78;20928;-71
2020/12/18 05:07:05;;;;;;;81.78;34.85;;;;;;;-1.55;100.00;100498.33;1818955;78;21565;-73
2020/12/18 05:09:36;;;;;;;105.50;39.70;;;;;;;-1.56;100.00;100500.64;1747593;82;20952;-73
2020/12/18 05:12:08;;;;;;;80.83;34.33;;;;;;;-1.56;100.00;100493.56;1819752;78;20995;-74
2020/12/18 05:14:48;;;;;;;68.60;30.57;;;;;;;-1.55;100.00;100499.65;1819744;78;21106;-73
2020/12/18 05:17:32;;;;;;;;;;;;;;;;;;;;;
2020/12/18 05:20:05;;;;;;;115.25;50.45;;;;;;;-1.49;100.00;100494.25;1819956;77;28588;-73
2020/12/18 05:22:50;;;;;;;83.17;37.93;;;;;;;-1.54;100.00;100496.88;1730334;81;20904;-73
2020/12/18 05:25:35;;;;;;;90.12;38.83;;;;;;;-1.50;100.00;100496.07;1874720;75;28517;-72
2020/12/18 05:28:19;;;;;;;74.05;32.80;;;;;;;-1.55;100.00;100498.33;1819907;78;20892;-72
2020/12/18 05:30:53;;;;;;;81.10;36.53;;;;;;;-1.55;100.00;100501.78;1819788;78;21188;-72
2020/12/18 05:33:54;;;;;;;91.45;40.90;;;;;;;-1.50;100.00;100505.28;1874484;75;22632;-72
2020/12/18 05:36:29;;;;;;;67.03;33.67;;;;;;;-1.54;100.00;100503.45;1790168;78;21505;-71
2020/12/18 05:39:00;;;;;;;57.08;29.02;;;;;;;-1.53;100.00;100507.73;1779515;78;21287;-72
2020/12/18 05:41:37;;;;;;;51.00;26.60;;;;;;;-1.54;100.00;100507.41;1819801;78;21532;-72
2020/12/18 05:44:08;;;;;;;48.90;25.50;;;;;;;-1.53;100.00;100520.90;1787932;78;20975;-72
2020/12/18 05:46:58;;;;;;;40.03;22.42;;;;;;;-1.53;100.00;100514.81;1818161;78;20936;-74
2020/12/18 05:49:58;;;;;;;49.15;21.40;;;;;;;-1.54;100.00;100517.12;1798471;78;20919;-73
2020/12/18 05:52:30;;;;;;;42.67;19.25;;;;;;;-1.55;100.00;100513.63;1819783;78;21497;-73
2020/12/18 05:55:00;;;;;;;38.20;19.80;;;;;;;-1.54;100.00;100515.80;1809990;78;20884;-72
2020/12/18 05:57:39;;;;;;;36.75;19.27;;;;;;;-1.55;100.00;100514.13;1807774;78;20904;-74
2020/12/18 06:00:09;;;;;;;35.95;16.42;;;;;;;-1.55;100.00;100518.08;1819232;78;20884;-74
2020/12/18 06:03:00;;;;;;;37.42;17.77;;;;;;;-1.55;100.00;100518.90;1819783;78;21462;-73
2020/12/18 06:05:49;;;;;;;49.27;20.52;;;;;;;-1.55;100.00;100516.77;1817615;78;21369;-74
2020/12/18 06:08:22;;;;;;;38.53;17.92;;;;;;;-1.56;100.00;100515.94;1819036;78;20963;-74
2020/12/18 06:10:56;;;;;;;38.38;18.00;;;;;;;-1.58;100.00;100515.27;1818995;78;20967;-74
2020/12/18 06:13:29;;;;;;;29.85;15.98;;;;;;;-1.58;100.00;100523.16;1788644;78;21549;-74
2020/12/18 06:16:15;;;;;;;26.35;15.28;;;;;;;-1.58;100.00;100531.55;1819818;78;21563;-74
2020/12/18 06:19:17;;;;;;;31.02;16.00;;;;;;;-1.55;100.00;100522.03;1851865;77;28501;-71
2020/12/18 06:25:09;;;;;;;31.17;16.40;;;;;;;-1.59;100.00;100526.78;1545872;91;21656;-73
2020/12/18 06:39:35;;;;;;;39.05;22.45;;;;;;;-1.55;100.00;100528.12;1793374;78;21439;-71
2020/12/18 06:42:24;;;;;;;31.55;17.90;;;;;;;-1.54;100.00;100517.94;1804785;78;21044;-75
2020/12/18 06:45:13;;;;;;;32.03;16.62;;;;;;;-1.54;100.00;100521.06;1817442;78;21154;-73
2020/12/18 06:48:37;;;;;;;;;;;;;;;;;;;;;
2020/12/18 06:51:36;;;;;;;27.48;14.00;;;;;;;-1.48;100.00;100515.18;1819794;77;22649;-72
2020/12/18 06:54:28;;;;;;;24.12;14.90;;;;;;;-1.52;100.00;100513.82;1821932;77;28472;-74
2020/12/18 06:57:35;;;;;;;22.82;14.20;;;;;;;-1.57;100.00;100512.13;1786674;80;20993;-74
2020/12/18 07:00:40;;;;;;;;;;;;;;;;;;;;;
2020/12/18 07:03:33;;;;;;;28.67;15.25;;;;;;;-1.59;100.00;100510.98;1787974;80;21397;-73
2020/12/18 07:09:27;;;;;;;33.85;17.85;;;;;;;-1.51;100.00;100508.91;1852243;77;28367;-73
2020/12/18 07:12:26;;;;;;;46.00;21.75;;;;;;;-1.52;100.00;100505.45;1877100;76;28243;-73
2020/12/18 07:15:12;;;;;;;43.02;22.70;;;;;;;-1.58;100.00;100511.31;1818230;79;20963;-72
2020/12/18 07:18:05;;;;;;;35.52;19.95;;;;;;;-1.58;100.00;100514.44;1788258;79;21219;-72
2020/12/18 07:21:09;;;;;;;33.78;19.48;;;;;;;-1.53;100.00;100509.05;1851673;77;29109;-72
2020/12/18 07:23:52;;;;;;;35.90;18.62;;;;;;;-1.56;100.00;100522.52;1819831;78;21042;-73
2020/12/18 07:26:36;;;;;;;39.20;20.85;;;;;;;-1.56;100.00;100515.94;1749917;81;21818;-73
2020/12/18 07:29:12;;;;;;;32.03;19.62;;;;;;;-1.54;100.00;100520.58;1821788;78;20880;-74
2020/12/18 07:32:01;;;;;;;35.65;17.77;;;;;;;-1.52;100.00;100513.82;1822715;78;21022;-73
2020/12/18 07:37:31;;;;;;;32.93;18.37;;;;;;;-1.45;100.00;100512.23;1847050;76;28328;-73
2020/12/18 07:40:51;;;;;;;;;;;;;;;;;;;;;
2020/12/18 07:43:38;;;;;;;52.48;28.05;;;;;;;-1.43;100.00;100512.92;1825830;77;28552;-72
2020/12/18 07:46:46;;;;;;;;;;;;;;;;;;;;;
2020/12/18 07:50:03;;;;;;;31.68;19.10;;;;;;;-1.39;100.00;100512.14;1841574;77;28634;-74
2020/12/18 07:53:42;;;;;;;;;;;;;;;;;;;;;
2020/12/18 07:57:08;;;;;;;33.92;19.57;;;;;;;-1.39;100.00;100507.69;1851708;77;28594;-72
2020/12/18 08:15:16;;;;;;;;;;;;;;;;;;;;;
2020/12/18 08:18:39;;;;;;;;;;;;;;;;;;;;;
2020/12/18 08:21:14;;;;;;;46.92;25.25;;;;;;;-1.33;100.00;100500.48;1747152;80;21334;-74
2020/12/18 08:24:36;;;;;;;50.25;24.57;;;;;;;-1.23;100.00;100500.88;1836845;77;28613;-72
2020/12/18 08:27:36;;;;;;;39.03;22.62;;;;;;;-1.28;100.00;100496.57;1777512;79;21442;-72
2020/12/18 08:30:37;;;;;;;40.20;24.72;;;;;;;-1.30;100.00;100501.98;1671409;85;21458;-72
2020/12/18 08:33:16;;;;;;;40.15;23.18;;;;;;;-1.26;100.00;100496.75;1669086;86;21042;-73
2020/12/18 08:35:48;;;;;;;56.10;33.80;;;;;;;-1.23;100.00;100492.98;1664643;84;21180;-74
2020/12/18 08:38:19;;;;;;;41.68;27.13;;;;;;;-1.20;100.00;100486.08;1698979;84;21712;-73
2020/12/18 08:43:34;;;;;;;50.52;28.95;;;;;;;-1.13;100.00;100487.11;1841724;77;28537;-73
2020/12/18 08:46:35;;;;;;;96.30;45.12;;;;;;;-1.18;100.00;100486.75;1805010;79;21684;-74
2020/12/18 08:49:27;;;;;;;140.15;77.17;;;;;;;-1.16;100.00;100487.44;1750053;82;21744;-72
2020/12/18 08:52:09;;;;;;;105.22;58.73;;;;;;;-1.15;100.00;100491.70;1768360;80;21593;-73
2020/12/18 08:54:42;;;;;;;251.25;107.35;;;;;;;-1.15;100.00;100491.24;1720011;82;21071;-73
2020/12/18 09:00:22;;;;;;;70.00;33.45;;;;;;;-1.09;100.00;100477.44;1845284;75;28302;-73
2020/12/18 09:03:07;;;;;;;;;;;;;;;-1.14;100.00;100478.39;1810262;78;20932;-76
2020/12/18 09:05:43;;;;;;;274.18;100.22;;;;;;;-1.14;100.00;100480.20;1809062;79;20148;-73
2020/12/18 09:08:23;;;;;;;42.27;24.82;;;;;;;-1.11;100.00;100487.30;1801173;78;21087;-75
2020/12/18 09:11:14;;;;;;;;;;;;;;;;;;;;;
2020/12/18 09:13:53;;;;;;;;;;;;;;;-1.08;100.00;100492.75;1708178;83;21051;-72
2020/12/18 09:17:08;;;;;;;102.47;45.73;;;;;;;-1.08;100.00;100486.16;1700875;83;20161;-75
2020/12/18 09:20:03;;;;;;;48.17;23.83;;;;;;;-1.07;100.00;100485.20;1739472;80;21216;-73
2020/12/18 09:23:03;;;;;;;47.45;27.90;;;;;;;-1.03;100.00;100485.20;1760612;80;21117;-75
2020/12/18 09:25:50;;;;;;;105.20;56.63;;;;;;;-0.99;100.00;100493.64;1682328;83;21229;-72
2020/12/18 09:28:52;;;;;;;114.47;59.13;;;;;;;-0.96;100.00;100490.69;1690081;83;21436;-73
2020/12/18 09:42:40;;;;;;;;;;;;;;;;;;;;;
2020/12/18 09:45:18;;;;;;;;;;;;;;;;;;;;;
2020/12/18 09:47:57;;;;;;;128.18;59.53;;;;;;;-1.01;100.00;100476.66;1877530;76;28080;-72
2020/12/18 09:51:01;;;;;;;35.95;19.60;;;;;;;-1.05;100.00;100480.60;1817355;79;21521;-74
2020/12/18 10:08:50;;;;;;;;;;;;;;;;;;;;;
2020/12/18 10:12:23;;;;;;;181.22;67.12;;;;;;;-0.96;100.00;100480.14;1741958;79;21572;-74
2020/12/18 10:15:47;;;;;;;;;;;;;;;;;;;;;
2020/12/18 10:19:02;;;;;;;;;;;;;;;;;;;;;
2020/12/18 10:23:25;;;;;;;;;;;;;;;;;;;;;
2020/12/18 10:26:48;;;;;;;75.32;43.08;;;;;;;-0.77;100.00;100472.50;1598285;86;21220;-73
2020/12/18 10:31:01;;;;;;;;;;;;;;;;;;;;;
2020/12/18 10:38:08;;;;;;;;;;;;;;;;;;;;;
2020/12/18 10:42:08;;;;;;;;;;;;;;;;;;;;;
2020/12/18 10:55:55;;;;;;;;;;;;;;;;;;;;;
2020/12/18 10:58:44;;;;;;;111.37;53.58;;;;;;;-0.74;100.00;100433.45;1798457;78;23561;-73
2020/12/18 11:01:23;;;;;;;118.82;65.80;;;;;;;-0.79;100.00;100441.02;1769253;80;21069;-73
2020/12/18 11:04:24;;;;;;;92.97;43.90;;;;;;;-0.77;100.00;100433.78;1715646;83;20959;-75
2020/12/18 11:06:54;;;;;;;;;;;;;;;-0.75;100.00;100433.14;1779276;80;21309;-73
2020/12/18 11:09:29;;;;;;;72.95;39.38;;;;;;;-0.75;100.00;100431.81;1761674;80;20505;-73
2020/12/18 11:12:21;;;;;;;76.15;40.03;;;;;;;-0.71;100.00;100425.72;1762805;80;21110;-72
2020/12/18 11:15:19;;;;;;;63.75;34.40;;;;;;;-0.69;100.00;100427.22;1769844;80;20947;-74
2020/12/18 11:18:00;;;;;;;134.82;60.50;;;;;;;-0.65;100.00;100422.47;1715845;83;21545;-73
2020/12/18 11:20:35;;;;;;;101.27;48.40;;;;;;;-0.60;100.00;100429.40;1770665;80;20932;-73
2020/12/18 11:23:36;;;;;;;;;;;;;;;;;;;;;
2020/12/18 11:26:32;;;;;;;75.85;44.08;;;;;;;-0.64;100.00;100426.73;1670235;83;21114;-73
2020/12/18 11:29:05;;;;;;;69.17;37.15;;;;;;;-0.61;100.00;100423.81;1767810;80;21058;-74
2020/12/18 11:31:41;;;;;;;65.25;35.60;;;;;;;-0.60;100.00;100423.31;1744469;81;21304;-74
2020/12/18 11:34:44;;;;;;;;;;;;;;;;;;;;;
2020/12/18 11:37:10;;;;;;;44.03;24.25;;;;;;;-0.54;100.00;100427.92;1742332;81;21145;-73
2020/12/18 11:40:17;;;;;;;59.45;35.23;;;;;;;-0.53;100.00;100423.83;1617994;84;21728;-73
2020/12/18 11:43:17;;;;;;;50.63;29.52;;;;;;;-0.55;100.00;100421.83;1590604;88;21196;-74
2020/12/18 11:45:52;;;;;;;50.58;28.30;;;;;;;-0.51;100.00;100406.53;1610326;88;21263;-73
2020/12/18 11:48:24;;;;;;;49.67;27.93;;;;;;;-0.45;100.00;100409.83;1606432;88;21116;-74
2020/12/18 11:51:15;;;;;;;;;;;;;;;;;;;;;
2020/12/18 11:53:53;;;;;;;50.15;27.82;;;;;;;-0.34;100.00;100399.45;1848464;77;29577;-73
2020/12/18 12:00:30;;;;;;;39.33;21.82;;;;;;;-0.35;100.00;100402.59;1747958;82;21039;-73
2020/12/18 12:03:06;;;;;;;31.93;19.80;;;;;;;-0.35;100.00;100397.31;1812126;78;21436;-73
2020/12/18 12:05:48;;;;;;;40.52;21.55;;;;;;;-0.35;100.00;100392.04;1744787;82;21051;-73
2020/12/18 12:08:23;;;;;;;57.05;31.23;;;;;;;-0.34;100.00;100395.03;1740048;78;20987;-74
2020/12/18 12:11:01;;;;;;;45.48;26.45;;;;;;;-0.34;100.00;100395.03;1815130;78;20991;-72
2020/12/18 12:13:38;;;;;;;48.00;27.82;;;;;;;-0.34;100.00;100388.44;1746358;82;22269;-73
2020/12/18 12:16:17;;;;;;;47.67;30.85;;;;;;;-0.31;100.00;100395.20;1819049;78;20943;-73
2020/12/18 12:33:04;;;;;;;45.65;24.92;;;;;;;-0.24;100.00;100396.20;1788809;79;27355;-75
2020/12/18 12:35:41;;;;;;;;;;;;;;;-0.29;100.00;100406.41;1729738;83;21015;-73
2020/12/18 12:38:06;;;;;;;60.17;32.40;;;;;;;-0.29;100.00;100402.46;1755895;81;20509;-73
2020/12/18 12:40:34;;;;;;;55.33;30.95;;;;;;;-0.32;100.00;100398.80;1757218;81;20944;-73
2020/12/18 12:43:04;;;;;;;61.50;33.08;;;;;;;-0.36;100.00;100397.50;1727154;82;20932;-74
2020/12/18 12:45:34;;;;;;;55.43;31.45;;;;;;;-0.40;100.00;100390.38;1757493;81;21023;-74
2020/12/18 12:48:14;;;;;;;58.30;32.98;;;;;;;-0.38;100.00;100392.38;1852259;77;22747;-73
2020/12/18 12:51:03;;;;;;;;;;;;;;;;;;;;;
2020/12/18 12:53:38;;;;;;;81.17;48.92;;;;;;;-0.33;100.00;100401.94;1841892;77;22705;-75
2020/12/18 12:56:19;;;;;;;72.40;36.38;;;;;;;-0.37;100.00;100396.65;1817338;79;21026;-73
2020/12/18 12:59:03;;;;;;;;;;;;;;;-0.38;100.00;100408.70;1751745;82;21220;-73
2020/12/18 13:01:36;;;;;;;85.77;41.30;;;;;;;-0.38;100.00;100398.15;1750348;82;21010;-72
2020/12/18 13:04:22;;;;;;;;;;;;;;;;;;;;;
2020/12/18 13:07:04;;;;;;;65.40;33.60;;;;;;;-0.41;100.00;100396.66;1852066;77;28958;-73
2020/12/18 13:10:00;;;;;;;62.27;30.90;;;;;;;-0.43;100.00;100398.62;1827022;78;22642;-73
2020/12/18 13:12:43;;;;;;;68.80;35.98;;;;;;;-0.47;100.00;100400.75;1787384;80;21054;-73
2020/12/18 13:15:19;;;;;;;76.12;42.70;;;;;;;-0.48;100.00;100396.97;1787315;80;22266;-72
2020/12/18 13:17:51;;;;;;;75.28;41.53;;;;;;;-0.47;100.00;100405.20;1787273;80;20948;-72
2020/12/18 13:20:36;;;;;;;63.68;36.15;;;;;;;-0.46;100.00;100396.32;1786903;80;21030;-75
2020/12/18 13:23:24;;;;;;;68.87;39.00;;;;;;;-0.47;100.00;100397.29;1783684;80;20931;-73
2020/12/18 13:25:49;;;;;;;69.15;36.20;;;;;;;-0.48;100.00;100403.06;1752341;80;20931;-73
2020/12/18 13:28:25;;;;;;;81.28;41.83;;;;;;;-0.47;100.00;100402.06;1788515;78;21363;-72
2020/12/18 13:31:05;;;;;;;79.75;43.15;;;;;;;-0.42;100.00;100406.04;1856097;77;22764;-72
2020/12/18 13:33:45;;;;;;;81.12;43.38;;;;;;;-0.48;100.00;100407.02;1820083;78;21584;-75
2020/12/18 13:36:24;;;;;;;243.27;127.17;;;;;;;-0.48;100.00;100404.38;1820088;78;22209;-73
2020/12/18 13:41:49;;;;;;;119.50;66.28;;;;;;;-0.50;100.00;100405.53;1588566;90;21006;-73
2020/12/18 13:44:28;;;;;;;105.35;58.68;;;;;;;-0.51;100.00;100409.17;1562428;91;21270;-72
2020/12/18 13:47:12;;;;;;;95.47;48.78;;;;;;;-0.52;100.00;100418.87;1554195;92;21070;-74
2020/12/18 13:50:07;;;;;;;100.35;52.53;;;;;;;-0.48;100.00;100403.56;1823249;78;24004;-73
2020/12/18 13:52:53;;;;;;;;;;;;;;;;;;;;;
2020/12/18 13:55:51;;;;;;;;;;;;;;;;;;;;;
2020/12/18 13:58:22;;;;;;;80.92;45.58;;;;;;;-0.55;100.00;100409.97;1757035;81;20924;-72
2020/12/18 14:01:12;;;;;;;;;;;;;;;;;;;;;
2020/12/18 14:03:44;;;;;;;92.00;57.10;;;;;;;-0.51;100.00;100403.39;1828884;76;28271;-72
2020/12/18 14:06:31;;;;;;;80.55;47.27;;;;;;;-0.54;100.00;100413.42;1852369;77;21050;-72
2020/12/18 14:09:03;;;;;;;94.00;54.30;;;;;;;-0.54;100.00;100398.45;1786225;80;21279;-74
2020/12/18 14:11:38;;;;;;;104.63;62.98;;;;;;;-0.53;100.00;100392.67;1815332;79;21106;-73
2020/12/18 14:17:37;;;;;;;107.80;60.03;;;;;;;-0.52;100.00;100392.50;1826514;77;22841;-74
2020/12/18 14:20:18;;;;;;;121.40;58.23;;;;;;;-0.57;100.00;100391.33;1823780;78;20938;-74
2020/12/18 14:26:23;;;;;;;138.15;64.15;;;;;;;-0.57;100.00;100403.20;1809512;77;22791;-72
2020/12/18 14:29:00;;;;;;;133.82;65.78;;;;;;;-0.63;100.00;100402.54;1816543;79;21603;-72
2020/12/18 14:31:31;;;;;;;124.65;64.42;;;;;;;-0.66;100.00;100399.23;1817389;79;20923;-72
2020/12/18 14:34:05;;;;;;;114.88;57.25;;;;;;;-0.66;100.00;100399.23;1720286;82;21046;-72
2020/12/18 14:36:38;;;;;;;116.10;58.70;;;;;;;-0.67;100.00;100400.20;1747868;82;21019;-73
2020/12/18 14:39:35;;;;;;;125.53;63.45;;;;;;;-0.68;100.00;100405.16;1751826;82;21530;-73